Keumyang Family — DSNO8 — position and weather

sailwx.info

Track history (hours):
 
Tides and Currents Weather Stations Pressure Air Temp Water Temp Dewpoint Dewpoint Depression Visibility Wind Speed Wind Dir Waves Ship Positions

Keumyang Family

Last reported at 2014-Jun-27 23:16 UTC. Time now 2014-Jul-24 15:30 UTC.
Position N 34°37' E 134°58'.
Warning: this ship's position is 26 days out of date.

Length 95 m; draft 4.1 m.

Type: Cargo ship. MMSI: 441416000.

Date/timePositionNaut miles runAvg speedWind from/ knotsBaromVisibWave heightAir tempDewpointWater temp
2014-Jun-27 23:16N 34°37' E 134°58'6 8.9
2014-Jun-27 22:33N 34°35' E 135°05'9 8.5
2014-Jun-27 21:33N 34°27' E 135°03'11 7.8
2014-Jun-27 20:08N 34°16' E 134°59'4 6.9
2014-Jun-27 19:33N 34°12' E 134°59'8 8.3
2014-Jun-27 18:32N 34°04' E 134°60'214 7.1
2014-Jun-26 12:30N 34°47' E 139°14'26 8.4
2014-Jun-26 09:26N 35°04' E 139°38'7 8.4
2014-Jun-26 08:33N 35°09' E 139°45'8 8.3
2014-Jun-26 07:33N 35°17' E 139°45'8 7.9
2014-Jun-26 06:33N 35°25' E 139°44'9 8.8
2014-Jun-26 05:33N 35°30' E 139°53'9 9.0
2014-Jun-26 04:33N 35°35' E 140°02'3 2.6
2014-Jun-26 03:23N 35°36' E 140°06'0 0.0
2014-Jun-26 02:29N 35°36' E 140°06'0 0.0
2014-Jun-26 01:26N 35°36' E 140°06'0 0.0
2014-Jun-26 00:29N 35°36' E 140°06'0 0.0
2014-Jun-25 23:26N 35°36' E 140°06'0 0.0
2014-Jun-25 22:32N 35°36' E 140°06'0 0.0
2014-Jun-25 21:32N 35°36' E 140°06'0 0.0
2014-Jun-25 20:29N 35°36' E 140°06'0 0.0
2014-Jun-25 19:14N 35°36' E 140°06'0 0.0
2014-Jun-25 18:26N 35°36' E 140°06'0 0.0
2014-Jun-25 17:32N 35°36' E 140°06'0 0.0
2014-Jun-25 16:32N 35°36' E 140°06'0 0.0
2014-Jun-25 15:32N 35°36' E 140°06'0 0.0
2014-Jun-25 14:32N 35°36' E 140°06'0 0.0
2014-Jun-25 13:32N 35°36' E 140°06'0 0.0
2014-Jun-25 12:32N 35°36' E 140°06'0 0.0
2014-Jun-25 11:14N 35°36' E 140°06'0 0.0
2014-Jun-25 10:32N 35°36' E 140°06'0 0.0
2014-Jun-25 09:23N 35°36' E 140°06'0 0.0
2014-Jun-25 08:32N 35°36' E 140°06'0 0.0
2014-Jun-25 07:26N 35°36' E 140°06'0 0.0
2014-Jun-25 06:26N 35°36' E 140°06'0 0.0
2014-Jun-25 05:29N 35°36' E 140°06'0 0.0
2014-Jun-25 04:32N 35°36' E 140°06'0 0.0
2014-Jun-25 03:32N 35°36' E 140°06'0 0.0
2014-Jun-25 02:32N 35°36' E 140°06'0 0.0
2014-Jun-25 01:26N 35°36' E 140°06'0 0.0
2014-Jun-25 00:26N 35°36' E 140°06'0 0.0
2014-Jun-24 22:32N 35°36' E 140°06'4 3.8
2014-Jun-24 21:32N 35°35' E 140°01'0 0.0
2014-Jun-24 20:32N 35°35' E 140°01'0 0.0
2014-Jun-24 19:26N 35°35' E 140°01'0 0.0
2014-Jun-24 18:26N 35°35' E 140°01'0 0.1
2014-Jun-24 17:32N 35°35' E 140°01'0 0.0
2014-Jun-24 16:32N 35°35' E 140°01'0 0.0
2014-Jun-24 15:32N 35°35' E 140°01'0 0.0
2014-Jun-24 14:32N 35°35' E 140°01'0 0.0
2014-Jun-24 13:26N 35°35' E 140°01'0 0.0
2014-Jun-24 12:32N 35°35' E 140°01'0 0.0
2014-Jun-24 11:32N 35°35' E 140°01'0 0.0
2014-Jun-24 10:32N 35°35' E 140°01'0 0.0
2014-Jun-24 09:20N 35°35' E 140°01'0 0.0
2014-Jun-24 08:17N 35°35' E 140°01'0 0.1
2014-Jun-24 07:32N 35°35' E 140°01'0 0.0
2014-Jun-24 06:26N 35°35' E 140°01'0 0.0
2014-Jun-24 05:32N 35°35' E 140°01'0 0.1
2014-Jun-24 04:32N 35°35' E 140°01'0 0.0
2014-Jun-24 03:32N 35°35' E 140°01'0 0.1
2014-Jun-24 02:32N 35°35' E 140°01'2 2.2
2014-Jun-24 01:33N 35°33' E 139°59'8 7.7
2014-Jun-24 00:33N 35°29' E 139°52'7 7.5
2014-Jun-23 23:33N 35°23' E 139°46'7 7.0
2014-Jun-23 22:32N 35°16' E 139°46'7 7.5
2014-Jun-23 21:33N 35°09' E 139°45'8 8.3
2014-Jun-23 20:33N 35°02' E 139°39'8 8.5
2014-Jun-23 19:33N 34°57' E 139°30'9 9.0
2014-Jun-23 18:33N 34°52' E 139°22'215 6.5
2014-Jun-22 09:32N 34°21' E 135°03'5 3.9
2014-Jun-22 08:11N 34°22' E 135°09'0 0.0
2014-Jun-22 06:23N 34°22' E 135°09'0 0.0
2014-Jun-22 05:32N 34°22' E 135°09'0 0.0
2014-Jun-22 04:32N 34°22' E 135°09'0 0.0
2014-Jun-22 03:29N 34°22' E 135°09'0 0.0
2014-Jun-22 02:05N 34°22' E 135°09'0 0.0
2014-Jun-22 01:29N 34°22' E 135°09'0 0.0
2014-Jun-22 00:11N 34°22' E 135°09'0 0.0
2014-Jun-21 23:17N 34°22' E 135°09'0 0.0
2014-Jun-21 21:32N 34°22' E 135°09'0 0.0
2014-Jun-21 20:32N 34°22' E 135°09'0 0.0
2014-Jun-21 19:32N 34°22' E 135°09'0 0.0
2014-Jun-21 18:29N 34°22' E 135°09'0 0.1
2014-Jun-21 17:23N 34°22' E 135°09'0 0.0
2014-Jun-21 16:26N 34°22' E 135°09'0 0.1
2014-Jun-21 15:32N 34°22' E 135°09'0 0.0
2014-Jun-21 14:08N 34°22' E 135°09'0 0.0
2014-Jun-21 13:29N 34°22' E 135°09'0 0.0
2014-Jun-21 12:32N 34°22' E 135°09'0 0.0
2014-Jun-21 11:29N 34°22' E 135°09'1 1.4
2014-Jun-21 10:33N 34°22' E 135°08'9 7.9
2014-Jun-21 09:28N 34°17' E 134°59'14 7.4
2014-Jun-21 07:33N 34°31' E 135°02'6 5.6
2014-Jun-21 06:34N 34°37' E 135°01'6 6.1
2014-Jun-21 05:33N 34°35' E 134°54'  
Track history (hours):
 
Tides and Currents Weather Stations Pressure Air Temp Water Temp Dewpoint Dewpoint Depression Visibility Wind Speed Wind Dir Waves Ship Positions

Keumyang Family

Last reported at 2014-Jun-27 23:16 UTC. Time now 2014-Jul-24 15:30 UTC.
Position N 34°37' E 134°58'.
Warning: this ship's position is 26 days out of date.

Length 95 m; draft 4.1 m.

Type: Cargo ship. MMSI: 441416000.

Date/timePositionNaut miles runAvg speedWind from/ knotsBaromVisibWave heightAir tempDewpointWater temp
2014-Jun-27 23:16N 34°37' E 134°58'6 8.9
2014-Jun-27 22:33N 34°35' E 135°05'9 8.5
2014-Jun-27 21:33N 34°27' E 135°03'11 7.8
2014-Jun-27 20:08N 34°16' E 134°59'4 6.9
2014-Jun-27 19:33N 34°12' E 134°59'8 8.3
2014-Jun-27 18:32N 34°04' E 134°60'214 7.1
2014-Jun-26 12:30N 34°47' E 139°14'26 8.4
2014-Jun-26 09:26N 35°04' E 139°38'7 8.4
2014-Jun-26 08:33N 35°09' E 139°45'8 8.3
2014-Jun-26 07:33N 35°17' E 139°45'8 7.9
2014-Jun-26 06:33N 35°25' E 139°44'9 8.8
2014-Jun-26 05:33N 35°30' E 139°53'9 9.0
2014-Jun-26 04:33N 35°35' E 140°02'3 2.6
2014-Jun-26 03:23N 35°36' E 140°06'0 0.0
2014-Jun-26 02:29N 35°36' E 140°06'0 0.0
2014-Jun-26 01:26N 35°36' E 140°06'0 0.0
2014-Jun-26 00:29N 35°36' E 140°06'0 0.0
2014-Jun-25 23:26N 35°36' E 140°06'0 0.0
2014-Jun-25 22:32N 35°36' E 140°06'0 0.0
2014-Jun-25 21:32N 35°36' E 140°06'0 0.0
2014-Jun-25 20:29N 35°36' E 140°06'0 0.0
2014-Jun-25 19:14N 35°36' E 140°06'0 0.0
2014-Jun-25 18:26N 35°36' E 140°06'0 0.0
2014-Jun-25 17:32N 35°36' E 140°06'0 0.0
2014-Jun-25 16:32N 35°36' E 140°06'0 0.0
2014-Jun-25 15:32N 35°36' E 140°06'0 0.0
2014-Jun-25 14:32N 35°36' E 140°06'0 0.0
2014-Jun-25 13:32N 35°36' E 140°06'0 0.0
2014-Jun-25 12:32N 35°36' E 140°06'0 0.0
2014-Jun-25 11:14N 35°36' E 140°06'0 0.0
2014-Jun-25 10:32N 35°36' E 140°06'0 0.0
2014-Jun-25 09:23N 35°36' E 140°06'0 0.0
2014-Jun-25 08:32N 35°36' E 140°06'0 0.0
2014-Jun-25 07:26N 35°36' E 140°06'0 0.0
2014-Jun-25 06:26N 35°36' E 140°06'0 0.0
2014-Jun-25 05:29N 35°36' E 140°06'0 0.0
2014-Jun-25 04:32N 35°36' E 140°06'0 0.0
2014-Jun-25 03:32N 35°36' E 140°06'0 0.0
2014-Jun-25 02:32N 35°36' E 140°06'0 0.0
2014-Jun-25 01:26N 35°36' E 140°06'0 0.0
2014-Jun-25 00:26N 35°36' E 140°06'0 0.0
2014-Jun-24 22:32N 35°36' E 140°06'4 3.8
2014-Jun-24 21:32N 35°35' E 140°01'0 0.0
2014-Jun-24 20:32N 35°35' E 140°01'0 0.0
2014-Jun-24 19:26N 35°35' E 140°01'0 0.0
2014-Jun-24 18:26N 35°35' E 140°01'0 0.1
2014-Jun-24 17:32N 35°35' E 140°01'0 0.0
2014-Jun-24 16:32N 35°35' E 140°01'0 0.0
2014-Jun-24 15:32N 35°35' E 140°01'0 0.0
2014-Jun-24 14:32N 35°35' E 140°01'0 0.0
2014-Jun-24 13:26N 35°35' E 140°01'0 0.0
2014-Jun-24 12:32N 35°35' E 140°01'0 0.0
2014-Jun-24 11:32N 35°35' E 140°01'0 0.0
2014-Jun-24 10:32N 35°35' E 140°01'0 0.0
2014-Jun-24 09:20N 35°35' E 140°01'0 0.0
2014-Jun-24 08:17N 35°35' E 140°01'0 0.1
2014-Jun-24 07:32N 35°35' E 140°01'0 0.0
2014-Jun-24 06:26N 35°35' E 140°01'0 0.0
2014-Jun-24 05:32N 35°35' E 140°01'0 0.1
2014-Jun-24 04:32N 35°35' E 140°01'0 0.0
2014-Jun-24 03:32N 35°35' E 140°01'0 0.1
2014-Jun-24 02:32N 35°35' E 140°01'2 2.2
2014-Jun-24 01:33N 35°33' E 139°59'8 7.7
2014-Jun-24 00:33N 35°29' E 139°52'7 7.5
2014-Jun-23 23:33N 35°23' E 139°46'7 7.0
2014-Jun-23 22:32N 35°16' E 139°46'7 7.5
2014-Jun-23 21:33N 35°09' E 139°45'8 8.3
2014-Jun-23 20:33N 35°02' E 139°39'8 8.5
2014-Jun-23 19:33N 34°57' E 139°30'9 9.0
2014-Jun-23 18:33N 34°52' E 139°22'215 6.5
2014-Jun-22 09:32N 34°21' E 135°03'5 3.9
2014-Jun-22 08:11N 34°22' E 135°09'0 0.0
2014-Jun-22 06:23N 34°22' E 135°09'0 0.0
2014-Jun-22 05:32N 34°22' E 135°09'0 0.0
2014-Jun-22 04:32N 34°22' E 135°09'0 0.0
2014-Jun-22 03:29N 34°22' E 135°09'0 0.0
2014-Jun-22 02:05N 34°22' E 135°09'0 0.0
2014-Jun-22 01:29N 34°22' E 135°09'0 0.0
2014-Jun-22 00:11N 34°22' E 135°09'0 0.0
2014-Jun-21 23:17N 34°22' E 135°09'0 0.0
2014-Jun-21 21:32N 34°22' E 135°09'0 0.0
2014-Jun-21 20:32N 34°22' E 135°09'0 0.0
2014-Jun-21 19:32N 34°22' E 135°09'0 0.0
2014-Jun-21 18:29N 34°22' E 135°09'0 0.1
2014-Jun-21 17:23N 34°22' E 135°09'0 0.0
2014-Jun-21 16:26N 34°22' E 135°09'0 0.1
2014-Jun-21 15:32N 34°22' E 135°09'0 0.0
2014-Jun-21 14:08N 34°22' E 135°09'0 0.0
2014-Jun-21 13:29N 34°22' E 135°09'0 0.0
2014-Jun-21 12:32N 34°22' E 135°09'0 0.0
2014-Jun-21 11:29N 34°22' E 135°09'1 1.4
2014-Jun-21 10:33N 34°22' E 135°08'9 7.9
2014-Jun-21 09:28N 34°17' E 134°59'14 7.4
2014-Jun-21 07:33N 34°31' E 135°02'6 5.6
2014-Jun-21 06:34N 34°37' E 135°01'6 6.1
2014-Jun-21 05:33N 34°35' E 134°54'  

Dump ship's entire track history